createdAt,value
2022-08-04T00:00:05.469Z,21.00
2022-08-04T00:03:42.523Z,20.94
2022-08-04T00:07:01.132Z,20.89
2022-08-04T00:10:10.474Z,20.83
2022-08-04T00:13:18.561Z,20.77
2022-08-04T00:16:32.960Z,20.72
2022-08-04T00:19:50.014Z,20.68
2022-08-04T00:22:58.339Z,20.63
2022-08-04T00:26:05.713Z,20.59
2022-08-04T00:29:13.230Z,20.55
2022-08-04T00:32:33.778Z,20.49
2022-08-04T00:35:42.757Z,20.42
2022-08-04T00:38:51.029Z,20.36
2022-08-04T00:42:24.473Z,20.29
2022-08-04T00:46:16.263Z,20.21
2022-08-04T00:49:43.804Z,20.14
2022-08-04T00:53:07.617Z,20.08
2022-08-04T00:56:32.967Z,20.00
2022-08-04T00:59:53.064Z,19.94
2022-08-04T01:03:16.036Z,19.89
2022-08-04T01:06:36.355Z,19.85
2022-08-04T01:09:56.058Z,19.83
2022-08-04T01:13:28.898Z,19.82
2022-08-04T01:16:44.533Z,19.78
2022-08-04T01:20:07.925Z,19.75
2022-08-04T01:23:46.568Z,19.74
2022-08-04T01:27:07.394Z,19.71
2022-08-04T01:30:17.449Z,19.66
2022-08-04T01:33:24.001Z,19.61
2022-08-04T01:36:36.447Z,19.54
2022-08-04T01:39:51.288Z,19.48
2022-08-04T01:42:59.939Z,19.42
2022-08-04T01:46:11.020Z,19.36
2022-08-04T01:49:22.373Z,19.30
2022-08-04T01:52:33.055Z,19.24
2022-08-04T01:55:54.632Z,19.19
2022-08-04T01:59:06.162Z,19.10
2022-08-04T02:02:14.379Z,19.02
2022-08-04T02:05:24.021Z,18.95
2022-08-04T02:08:43.080Z,18.85
2022-08-04T02:12:15.840Z,18.79
2022-08-04T02:15:31.945Z,18.74
2022-08-04T02:18:49.604Z,18.67
2022-08-04T02:22:10.006Z,18.60
2022-08-04T02:25:23.874Z,18.55
2022-08-04T02:28:37.046Z,18.49
2022-08-04T02:31:54.017Z,18.45
2022-08-04T02:35:05.750Z,18.41
2022-08-04T02:38:25.679Z,18.37
2022-08-04T02:41:35.567Z,18.32
2022-08-04T02:44:44.653Z,18.25
2022-08-04T02:48:29.610Z,18.20
2022-08-04T02:51:26.015Z,18.14
2022-08-04T02:54:40.311Z,18.09
2022-08-04T02:57:50.697Z,18.06
2022-08-04T03:00:58.141Z,18.02
2022-08-04T03:04:24.387Z,17.98
2022-08-04T03:08:01.121Z,17.97
2022-08-04T03:11:30.003Z,17.95
2022-08-04T03:15:02.916Z,17.92
2022-08-04T03:18:39.137Z,17.92
2022-08-04T03:22:32.448Z,17.88
2022-08-04T03:26:13.849Z,17.83
2022-08-04T03:29:45.173Z,17.79
2022-08-04T03:33:22.307Z,17.75
2022-08-04T03:36:50.280Z,17.74
2022-08-04T03:40:33.449Z,17.75
2022-08-04T03:44:06.030Z,17.78
2022-08-04T03:47:29.702Z,17.83
2022-08-04T03:51:35.109Z,18.03
2022-08-04T03:55:29.204Z,18.32
2022-08-04T03:58:47.904Z,18.61
2022-08-04T04:02:22.022Z,18.87
2022-08-04T04:06:02.528Z,19.16
2022-08-04T04:09:57.725Z,19.44
2022-08-04T04:13:53.105Z,19.74
2022-08-04T04:17:19.605Z,19.99
2022-08-04T04:20:47.892Z,20.21
2022-08-04T04:24:13.051Z,20.40
2022-08-04T04:27:36.033Z,20.63
2022-08-04T04:30:51.075Z,20.85
2022-08-04T04:34:09.175Z,21.09
2022-08-04T04:37:32.045Z,21.31
2022-08-04T04:40:54.669Z,21.54
2022-08-04T04:44:19.980Z,21.78
2022-08-04T04:47:43.040Z,22.04
2022-08-04T04:51:14.718Z,22.26
2022-08-04T04:54:29.992Z,22.51
2022-08-04T04:57:54.305Z,22.75
2022-08-04T05:01:38.787Z,22.96
2022-08-04T05:05:22.719Z,23.23
2022-08-04T05:08:55.097Z,23.50
2022-08-04T05:14:31.289Z,23.74
2022-08-04T05:15:58.130Z,24.00
2022-08-04T05:19:19.962Z,24.20
2022-08-04T05:22:31.220Z,24.44
2022-08-04T05:25:50.142Z,24.67
2022-08-04T05:29:11.893Z,24.92
2022-08-04T05:32:25.861Z,25.21
2022-08-04T05:36:16.402Z,25.49
2022-08-04T05:39:08.643Z,25.82
2022-08-04T05:42:17.167Z,26.04
2022-08-04T05:45:24.124Z,26.27
2022-08-04T05:48:34.191Z,26.49
2022-08-04T05:51:43.520Z,26.74
2022-08-04T05:54:54.302Z,26.98
2022-08-04T05:58:03.479Z,27.20
2022-08-04T06:01:12.212Z,27.45
2022-08-04T06:04:21.483Z,27.66
2022-08-04T06:07:29.670Z,27.84
2022-08-04T06:10:38.802Z,28.02
2022-08-04T06:13:52.043Z,28.25
2022-08-04T06:17:18.329Z,28.48
2022-08-04T06:20:40.901Z,28.78
2022-08-04T06:24:04.280Z,29.00
2022-08-04T06:27:12.992Z,29.13
2022-08-04T06:30:39.023Z,29.27
2022-08-04T06:33:54.501Z,29.53
2022-08-04T06:37:05.314Z,29.72
2022-08-04T06:40:31.232Z,29.88
2022-08-04T06:43:42.797Z,30.08
2022-08-04T06:46:54.264Z,30.25
2022-08-04T06:51:27.840Z,30.46
2022-08-04T06:53:29.969Z,30.66
2022-08-04T06:56:40.920Z,30.83
2022-08-04T06:59:50.942Z,30.94
2022-08-04T07:02:59.080Z,31.02
2022-08-04T07:06:14.306Z,31.09
2022-08-04T07:09:22.620Z,31.22
2022-08-04T07:12:40.192Z,31.39
2022-08-04T07:15:49.467Z,31.52
2022-08-04T07:18:56.944Z,31.62
2022-08-04T07:22:24.962Z,31.68
2022-08-04T07:26:00.462Z,31.78
2022-08-04T07:29:02.434Z,31.95
2022-08-04T07:32:13.883Z,32.08
2022-08-04T07:36:05.694Z,32.21
2022-08-04T07:38:52.322Z,32.45
2022-08-04T07:42:01.118Z,32.62
2022-08-04T07:45:11.916Z,32.70
2022-08-04T07:48:28.634Z,32.81
2022-08-04T07:51:38.115Z,32.89
2022-08-04T07:54:49.022Z,33.06
2022-08-04T07:57:56.612Z,33.23
2022-08-04T08:01:11.859Z,33.40
2022-08-04T08:04:19.805Z,33.60
2022-08-04T08:07:28.844Z,33.79
2022-08-04T08:10:39.205Z,33.94
2022-08-04T08:13:46.903Z,34.03
2022-08-04T08:16:54.577Z,34.14
2022-08-04T08:20:05.459Z,34.24
2022-08-04T08:23:14.362Z,34.28
2022-08-04T08:26:21.869Z,34.45
2022-08-04T08:29:30.173Z,34.45
2022-08-04T08:32:37.465Z,34.50
2022-08-04T08:35:54.892Z,34.55
2022-08-04T08:39:07.186Z,34.58
2022-08-04T08:42:41.621Z,34.63
2022-08-04T08:46:28.472Z,34.75
2022-08-04T08:50:13.700Z,34.87
2022-08-04T08:53:49.407Z,34.96
2022-08-04T08:57:11.955Z,35.05
2022-08-04T09:00:22.147Z,35.16
2022-08-04T09:04:26.723Z,35.28
2022-08-04T09:07:55.622Z,35.37
2022-08-04T09:11:11.207Z,35.46
2022-08-04T09:14:25.544Z,35.61
2022-08-04T09:17:38.915Z,35.60
2022-08-04T09:20:51.649Z,35.75
2022-08-04T09:24:35.293Z,35.77
2022-08-04T09:27:42.209Z,35.73
2022-08-04T09:30:59.251Z,35.77
2022-08-04T09:34:15.101Z,35.86
2022-08-04T09:37:33.316Z,35.98
2022-08-04T09:41:07.391Z,36.20
2022-08-04T09:44:50.585Z,36.26
2022-08-04T09:48:09.691Z,36.26
2022-08-04T09:51:27.057Z,36.34
2022-08-04T09:55:06.205Z,36.37
2022-08-04T09:58:24.125Z,36.51
2022-08-04T10:01:33.360Z,36.64
2022-08-04T10:04:43.755Z,36.69
2022-08-04T10:08:17.246Z,36.76
2022-08-04T10:11:55.707Z,36.93
2022-08-04T10:15:17.887Z,37.09
2022-08-04T10:18:38.899Z,37.11
2022-08-04T10:22:29.172Z,37.11
2022-08-04T10:26:07.404Z,37.12
2022-08-04T10:29:22.597Z,37.09
2022-08-04T10:32:39.964Z,37.08
2022-08-04T10:35:53.499Z,37.17
2022-08-04T10:39:12.024Z,37.15
2022-08-04T10:42:29.005Z,37.12
2022-08-04T10:45:45.539Z,37.18
2022-08-04T10:48:58.970Z,37.29
2022-08-04T10:52:13.375Z,37.42
2022-08-04T10:56:07.778Z,37.46
2022-08-04T10:59:04.709Z,37.30
2022-08-04T11:02:28.087Z,37.27
2022-08-04T11:05:47.191Z,37.49
2022-08-04T11:08:57.148Z,37.62
2022-08-04T11:12:10.867Z,37.74
2022-08-04T11:15:26.492Z,37.82
2022-08-04T11:18:42.374Z,37.70
2022-08-04T11:21:55.056Z,37.58
2022-08-04T11:25:12.076Z,37.41
2022-08-04T11:28:32.389Z,37.35
2022-08-04T11:31:49.824Z,37.42
2022-08-04T11:35:06.562Z,37.46
2022-08-04T11:38:25.547Z,37.40
2022-08-04T11:41:48.878Z,37.39
2022-08-04T11:45:01.777Z,37.35
2022-08-04T11:48:17.675Z,37.42
2022-08-04T11:51:28.186Z,37.55
2022-08-04T11:54:38.359Z,37.62
2022-08-04T11:57:46.219Z,37.81
2022-08-04T12:01:10.139Z,37.79
2022-08-04T12:04:29.176Z,37.76
2022-08-04T12:07:50.701Z,37.81
2022-08-04T12:11:10.770Z,37.84
2022-08-04T12:14:41.118Z,37.95
2022-08-04T12:17:59.221Z,38.05
2022-08-04T12:21:15.050Z,38.21
2022-08-04T12:24:27.371Z,38.28
2022-08-04T12:27:38.372Z,38.30
2022-08-04T12:30:58.252Z,38.16
2022-08-04T12:34:16.029Z,38.08
2022-08-04T12:37:36.552Z,38.14
2022-08-04T12:40:50.954Z,38.25
2022-08-04T12:44:05.807Z,38.33
2022-08-04T12:47:36.912Z,38.27
2022-08-04T12:50:48.438Z,38.31
2022-08-04T12:53:57.146Z,38.18
2022-08-04T12:57:06.088Z,38.17
2022-08-04T13:00:29.276Z,38.17
2022-08-04T13:03:44.222Z,38.07
2022-08-04T13:07:00.235Z,38.14
2022-08-04T13:10:15.038Z,38.26
2022-08-04T13:13:30.299Z,38.25
2022-08-04T13:16:37.858Z,38.40
2022-08-04T13:19:56.287Z,38.51
2022-08-04T13:23:21.409Z,38.67
2022-08-04T13:26:43.616Z,38.76
2022-08-04T13:30:03.733Z,38.61
2022-08-04T13:33:12.828Z,38.62
2022-08-04T13:36:21.198Z,38.73
2022-08-04T13:39:32.068Z,38.75
2022-08-04T13:42:41.158Z,38.84
2022-08-04T13:45:49.970Z,38.86
2022-08-04T13:49:25.912Z,38.92
2022-08-04T13:52:27.969Z,39.06
2022-08-04T13:55:38.320Z,39.27
2022-08-04T13:58:48.738Z,39.31
2022-08-04T14:02:04.251Z,39.49
2022-08-04T14:05:24.302Z,39.64
2022-08-04T14:08:37.930Z,39.62
2022-08-04T14:12:06.046Z,39.73
2022-08-04T14:16:03.042Z,39.79
2022-08-04T14:19:03.464Z,39.80
2022-08-04T14:22:15.171Z,39.69
2022-08-04T14:25:22.809Z,39.62
2022-08-04T14:29:08.561Z,39.49
2022-08-04T14:32:13.017Z,39.39
2022-08-04T14:35:45.543Z,39.39
2022-08-04T14:39:00.778Z,39.48
2022-08-04T14:42:09.397Z,39.58
2022-08-04T14:45:16.976Z,39.45
2022-08-04T14:48:25.530Z,39.20
2022-08-04T14:51:37.335Z,38.96
2022-08-04T14:54:44.674Z,38.86
2022-08-04T14:58:35.008Z,38.75
2022-08-04T15:01:22.028Z,38.72
2022-08-04T15:04:31.573Z,38.76
2022-08-04T15:07:39.651Z,39.02
2022-08-04T15:10:47.566Z,39.36
2022-08-04T15:13:56.113Z,39.46
2022-08-04T15:17:12.129Z,39.17
2022-08-04T15:20:38.337Z,38.91
2022-08-04T15:23:46.121Z,39.26
2022-08-04T15:26:57.370Z,39.73
2022-08-04T15:30:07.921Z,40.07
2022-08-04T15:33:24.076Z,40.18
2022-08-04T15:36:57.142Z,40.17
2022-08-04T15:40:11.146Z,40.14
2022-08-04T15:43:42.105Z,40.26
2022-08-04T15:47:13.512Z,40.84
2022-08-04T15:50:28.160Z,41.26
2022-08-04T15:54:27.390Z,41.75
2022-08-04T15:58:00.593Z,42.21
2022-08-04T16:01:21.385Z,42.24
2022-08-04T16:04:28.659Z,42.19
2022-08-04T16:08:00.194Z,41.94
2022-08-04T16:11:32.177Z,41.46
2022-08-04T16:14:39.918Z,41.29
2022-08-04T16:17:47.432Z,41.17
2022-08-04T16:20:57.928Z,40.70
2022-08-04T16:24:23.743Z,40.27
2022-08-04T16:27:41.563Z,40.09
2022-08-04T16:30:49.953Z,39.89
2022-08-04T16:34:45.716Z,40.04
2022-08-04T16:37:34.247Z,40.16
2022-08-04T16:40:46.712Z,39.58
2022-08-04T16:44:52.687Z,38.84
2022-08-04T16:48:10.531Z,38.46
2022-08-04T16:51:32.399Z,38.72
2022-08-04T16:54:39.980Z,39.27
2022-08-04T16:57:51.140Z,39.79
2022-08-04T17:00:58.948Z,40.25
2022-08-04T17:04:09.245Z,40.56
2022-08-04T17:07:17.138Z,40.68
2022-08-04T17:10:36.740Z,40.70
2022-08-04T17:14:01.841Z,40.80
2022-08-04T17:17:12.120Z,40.68
2022-08-04T17:20:27.205Z,40.59
2022-08-04T17:24:14.141Z,40.43
2022-08-04T17:28:20.555Z,40.15
2022-08-04T17:30:57.665Z,40.01
2022-08-04T17:34:16.606Z,39.86
2022-08-04T17:37:38.071Z,39.79
2022-08-04T17:40:58.726Z,39.49
2022-08-04T17:44:07.404Z,39.30
2022-08-04T17:47:21.510Z,39.03
2022-08-04T17:50:35.913Z,38.87
2022-08-04T17:54:01.674Z,38.52
2022-08-04T17:57:22.276Z,38.22
2022-08-04T18:00:38.568Z,37.83
2022-08-04T18:03:52.972Z,37.48
2022-08-04T18:07:04.658Z,37.19
2022-08-04T18:10:55.710Z,36.75
2022-08-04T18:14:04.412Z,36.17
2022-08-04T18:17:17.815Z,35.67
2022-08-04T18:20:39.627Z,35.11
2022-08-04T18:23:50.925Z,34.49
2022-08-04T18:26:59.000Z,33.82
2022-08-04T18:30:33.934Z,33.19
2022-08-04T18:33:40.042Z,32.54
2022-08-04T18:36:57.531Z,32.03
2022-08-04T18:40:26.316Z,31.57
2022-08-04T18:43:40.997Z,31.14
2022-08-04T18:46:52.571Z,30.78
2022-08-04T18:51:00.573Z,30.46
2022-08-04T18:53:36.262Z,30.12
2022-08-04T18:57:05.220Z,29.87
2022-08-04T19:00:13.768Z,29.60
2022-08-04T19:03:23.150Z,29.38
2022-08-04T19:06:31.233Z,29.17
2022-08-04T19:09:51.356Z,28.97
2022-08-04T19:13:00.415Z,28.74
2022-08-04T19:16:07.069Z,28.54
2022-08-04T19:19:47.719Z,28.34
2022-08-04T19:24:28.361Z,28.17
2022-08-04T19:26:27.726Z,28.00
2022-08-04T19:29:37.379Z,27.85
2022-08-04T19:32:48.328Z,27.72
2022-08-04T19:35:56.068Z,27.57
2022-08-04T19:39:11.827Z,27.44
2022-08-04T19:42:19.915Z,27.29
2022-08-04T19:45:43.726Z,27.16
2022-08-04T19:48:59.004Z,27.03
2022-08-04T19:52:08.789Z,26.92
2022-08-04T19:55:17.381Z,26.83
2022-08-04T19:58:26.723Z,26.76
2022-08-04T20:01:42.222Z,26.67
2022-08-04T20:04:52.913Z,26.59
2022-08-04T20:08:00.267Z,26.51
2022-08-04T20:11:08.267Z,26.43
2022-08-04T20:14:19.071Z,26.38
2022-08-04T20:18:06.802Z,26.32
2022-08-04T20:20:53.989Z,26.24
2022-08-04T20:24:40.530Z,26.17
2022-08-04T20:27:51.517Z,26.06
2022-08-04T20:30:57.756Z,25.98
2022-08-04T20:34:05.206Z,25.92
2022-08-04T20:37:15.432Z,25.84
2022-08-04T20:40:23.050Z,25.76
2022-08-04T20:43:31.293Z,25.68
2022-08-04T20:46:40.145Z,25.61
2022-08-04T20:49:45.956Z,25.54
2022-08-04T20:52:53.282Z,25.45
2022-08-04T20:56:00.678Z,25.37
2022-08-04T20:59:08.201Z,25.29
2022-08-04T21:02:17.556Z,25.19
2022-08-04T21:05:26.524Z,25.09
2022-08-04T21:08:34.343Z,25.00
2022-08-04T21:11:47.297Z,24.92
2022-08-04T21:15:01.378Z,24.85
2022-08-04T21:18:29.040Z,24.78
2022-08-04T21:21:36.902Z,24.71
2022-08-04T21:24:48.510Z,24.65
2022-08-04T21:27:58.525Z,24.58
2022-08-04T21:31:11.230Z,24.54
2022-08-04T21:34:38.331Z,24.47
2022-08-04T21:37:58.255Z,24.41
2022-08-04T21:41:09.421Z,24.35
2022-08-04T21:44:16.977Z,24.30
2022-08-04T21:47:24.285Z,24.25
2022-08-04T21:50:33.736Z,24.22
2022-08-04T21:53:41.347Z,24.19
2022-08-04T21:56:51.818Z,24.16
2022-08-04T22:00:00.480Z,24.12
2022-08-04T22:03:23.330Z,24.08
2022-08-04T22:06:42.592Z,24.06
2022-08-04T22:10:02.799Z,24.03
2022-08-04T22:13:10.966Z,24.03
2022-08-04T22:16:31.170Z,24.01
2022-08-04T22:19:55.803Z,24.00
2022-08-04T22:23:15.365Z,23.99
2022-08-04T22:26:26.800Z,23.98
2022-08-04T22:29:39.126Z,23.94
2022-08-04T22:32:47.399Z,23.91
2022-08-04T22:35:55.188Z,23.84
2022-08-04T22:39:07.673Z,23.77
2022-08-04T22:42:16.253Z,23.72
2022-08-04T22:45:28.847Z,23.66
2022-08-04T22:48:51.012Z,23.57
2022-08-04T22:51:58.388Z,23.51
2022-08-04T22:55:06.355Z,23.42
2022-08-04T22:58:14.751Z,23.35
2022-08-04T23:01:25.077Z,23.27
2022-08-04T23:04:40.500Z,23.20
2022-08-04T23:07:49.208Z,23.14
2022-08-04T23:10:58.312Z,23.07
2022-08-04T23:14:07.202Z,22.98
2022-08-04T23:17:15.416Z,22.91
2022-08-04T23:20:32.579Z,22.83
2022-08-04T23:23:45.465Z,22.75
2022-08-04T23:27:04.072Z,22.65
2022-08-04T23:30:14.233Z,22.57
2022-08-04T23:33:24.409Z,22.50
2022-08-04T23:36:52.761Z,22.43
2022-08-04T23:40:15.545Z,22.33
2022-08-04T23:43:38.731Z,22.27
2022-08-04T23:47:02.441Z,22.20
2022-08-04T23:50:12.635Z,22.17
2022-08-04T23:53:22.514Z,22.12
2022-08-04T23:56:31.928Z,22.11
2022-08-04T23:59:43.859Z,22.09
